Time;durP1;ratioP1;P1;durP2;ratioP2;P2;SDS_P1;SDS_P2;PMS_P1;PMS_P2;Temp;Humidity;BMP_temperature;BMP_pressure;BME280_temperature;BME280_humidity;BME280_pressure;Samples;Min_cycle;Max_cycle;Signal;HPM_P1;HPM_P2
2021/12/25 00:01:03;;;;;;;4.67;3.30;;;;;;;;;;5013356;28;20530;-61
2021/12/25 00:03:30;;;;;;;2.70;1.90;;;;;;;;;;5013479;28;20822;-61
2021/12/25 00:05:56;;;;;;;3.63;2.70;;;;;;;;;;5013671;28;20807;-61
2021/12/25 00:08:23;;;;;;;3.50;2.00;;;;;;;;;;5013308;28;20443;-60
2021/12/25 00:10:49;;;;;;;3.23;2.20;;;;;;;;;;5013283;28;20404;-62
2021/12/25 00:13:18;;;;;;;3.07;2.20;;;;;;;;;;5013236;28;20558;-60
2021/12/25 00:15:44;;;;;;;3.23;2.30;;;;;;;;;;5013479;28;20419;-61
2021/12/25 00:18:10;;;;;;;2.30;1.80;;;;;;;;;;5013116;28;20459;-61
2021/12/25 00:20:36;;;;;;;2.13;1.87;;;;;;;;;;5013180;28;20404;-61
2021/12/25 00:23:05;;;;;;;2.50;2.00;;;;;;;;;;5013234;28;20463;-61
2021/12/25 00:25:35;;;;;;;3.60;2.00;;;;;;;;;;5013199;28;20446;-61
2021/12/25 00:28:19;;;;;;;2.47;1.73;;;;;;;;;;5012945;28;20458;-60
2021/12/25 00:36:12;;;;;;;2.60;1.80;;;;;;;;;;5012664;28;20383;-59
2021/12/25 00:38:38;;;;;;;3.57;2.20;;;;;;;;;;5013012;28;20843;-61
2021/12/25 00:41:05;;;;;;;2.33;2.13;;;;;;;;;;5012638;28;20954;-61
2021/12/25 00:43:31;;;;;;;2.43;1.90;;;;;;;;;;5015806;28;20435;-59
2021/12/25 00:45:57;;;;;;;4.03;1.90;;;;;;;;;;5016594;28;20399;-60
2021/12/25 00:48:24;;;;;;;3.50;2.50;;;;;;;;;;5016578;28;20443;-60
2021/12/25 00:50:50;;;;;;;3.50;2.07;;;;;;;;;;5016243;28;20399;-60
2021/12/25 00:53:16;;;;;;;3.90;2.10;;;;;;;;;;5016183;28;20423;-60
2021/12/25 00:55:42;;;;;;;3.17;2.27;;;;;;;;;;5017184;28;20422;-60
2021/12/25 00:58:08;;;;;;;3.20;2.07;;;;;;;;;;5016496;28;20772;-60
2021/12/25 01:00:34;;;;;;;2.30;2.00;;;;;;;;;;5016475;28;20490;-60
2021/12/25 01:03:00;;;;;;;4.53;2.10;;;;;;;;;;5016488;28;20518;-60
2021/12/25 01:05:26;;;;;;;3.10;2.23;;;;;;;;;;5016168;28;20466;-60
2021/12/25 01:07:52;;;;;;;2.90;2.27;;;;;;;;;;5016032;28;20455;-60
2021/12/25 01:10:20;;;;;;;4.77;2.40;;;;;;;;;;5016144;28;20740;-60
2021/12/25 01:13:35;;;;;;;3.17;1.90;;;;;;;;;;5015989;28;20458;-60
2021/12/25 01:21:11;;;;;;;2.63;1.90;;;;;;;;;;5016270;28;20396;-60
2021/12/25 01:39:23;;;;;;;2.90;2.20;;;;;;;;;;5015649;28;20905;-60
2021/12/25 01:50:00;;;;;;;4.10;2.40;;;;;;;;;;5015632;28;20856;-60
2021/12/25 01:52:29;;;;;;;3.20;1.93;;;;;;;;;;5015009;28;20781;-60
2021/12/25 01:54:58;;;;;;;2.43;1.70;;;;;;;;;;5015165;28;20395;-60
2021/12/25 01:57:25;;;;;;;2.73;1.60;;;;;;;;;;5015686;28;20403;-60
2021/12/25 01:59:51;;;;;;;3.30;1.80;;;;;;;;;;5015205;28;20509;-60
2021/12/25 02:02:17;;;;;;;3.33;2.00;;;;;;;;;;5014949;28;20447;-60
2021/12/25 02:04:43;;;;;;;2.57;1.83;;;;;;;;;;5014915;28;20434;-60
2021/12/25 02:07:09;;;;;;;3.80;3.07;;;;;;;;;;5014981;28;20971;-60
2021/12/25 02:09:35;;;;;;;3.63;2.03;;;;;;;;;;5014932;28;20518;-59
2021/12/25 02:12:01;;;;;;;2.40;1.70;;;;;;;;;;5014787;28;20420;-59
2021/12/25 02:14:29;;;;;;;2.83;1.87;;;;;;;;;;5014867;28;20427;-59
2021/12/25 02:17:02;;;;;;;2.03;1.57;;;;;;;;;;5015117;28;20867;-56
2021/12/25 02:20:10;;;;;;;2.43;1.47;;;;;;;;;;5015157;28;20391;-57
2021/12/25 02:22:19;;;;;;;2.20;1.83;;;;;;;;;;5014407;28;20447;-60
2021/12/25 02:24:45;;;;;;;3.20;1.53;;;;;;;;;;5014963;28;20412;-60
2021/12/25 02:27:12;;;;;;;1.67;1.20;;;;;;;;;;5014481;28;20443;-59
2021/12/25 02:29:38;;;;;;;2.43;1.60;;;;;;;;;;5014550;28;20431;-60
2021/12/25 02:32:05;;;;;;;2.73;1.40;;;;;;;;;;5014623;28;20423;-59
2021/12/25 02:34:31;;;;;;;2.47;1.47;;;;;;;;;;5014461;28;20601;-60
2021/12/25 02:36:57;;;;;;;4.20;1.60;;;;;;;;;;5014546;28;20415;-55
2021/12/25 02:39:23;;;;;;;2.17;1.40;;;;;;;;;;5014624;28;20439;-55
2021/12/25 02:41:50;;;;;;;1.97;1.30;;;;;;;;;;5014451;28;20419;-57
2021/12/25 02:44:16;;;;;;;2.13;1.50;;;;;;;;;;5015013;28;20407;-57
2021/12/25 02:46:42;;;;;;;1.50;1.10;;;;;;;;;;5014251;28;20400;-60
2021/12/25 02:49:12;;;;;;;1.90;1.30;;;;;;;;;;5014394;28;20768;-60
2021/12/25 02:51:38;;;;;;;3.10;1.30;;;;;;;;;;5012646;28;20415;-54
2021/12/25 02:54:04;;;;;;;2.57;1.20;;;;;;;;;;5022445;28;20403;-60
2021/12/25 02:56:30;;;;;;;1.50;1.20;;;;;;;;;;5033831;28;20403;-56
2021/12/25 02:58:56;;;;;;;1.73;1.20;;;;;;;;;;5033961;28;20448;-59
2021/12/25 03:01:23;;;;;;;1.87;1.27;;;;;;;;;;5033865;28;20766;-59
2021/12/25 03:03:49;;;;;;;2.20;1.37;;;;;;;;;;5033677;28;20420;-60
2021/12/25 03:06:15;;;;;;;2.00;1.40;;;;;;;;;;5033302;28;20402;-58
2021/12/25 03:08:42;;;;;;;3.17;1.57;;;;;;;;;;5033752;28;20465;-60
2021/12/25 03:11:08;;;;;;;2.00;1.40;;;;;;;;;;5033407;28;20418;-59
2021/12/25 03:13:42;;;;;;;1.60;1.13;;;;;;;;;;5033414;28;20423;-60
2021/12/25 03:16:09;;;;;;;1.90;1.30;;;;;;;;;;5033849;28;20390;-59
2021/12/25 03:18:41;;;;;;;1.90;1.20;;;;;;;;;;5033621;28;20410;-60
2021/12/25 03:21:08;;;;;;;2.80;1.40;;;;;;;;;;5033554;28;20391;-59
2021/12/25 03:23:36;;;;;;;2.83;1.53;;;;;;;;;;5033188;28;20466;-61
2021/12/25 03:26:03;;;;;;;2.23;1.50;;;;;;;;;;5033480;28;20798;-58
2021/12/25 03:28:31;;;;;;;1.73;1.20;;;;;;;;;;5032827;28;20619;-55
2021/12/25 03:31:04;;;;;;;2.63;1.60;;;;;;;;;;5033137;28;20426;-57
2021/12/25 03:33:30;;;;;;;1.97;1.30;;;;;;;;;;5033014;28;20484;-59
2021/12/25 03:35:56;;;;;;;2.27;1.30;;;;;;;;;;5032831;28;20402;-59
2021/12/25 03:38:23;;;;;;;2.13;1.43;;;;;;;;;;5032927;28;20409;-61
2021/12/25 03:40:49;;;;;;;3.10;2.80;;;;;;;;;;5032790;28;20883;-61
2021/12/25 03:43:16;;;;;;;2.80;1.47;;;;;;;;;;5033080;28;20481;-61
2021/12/25 03:45:42;;;;;;;1.70;1.40;;;;;;;;;;5032944;28;20775;-61
2021/12/25 03:48:17;;;;;;;1.83;1.37;;;;;;;;;;5032737;28;20546;-60
2021/12/25 03:57:37;;;;;;;2.37;1.50;;;;;;;;;;5032887;28;20469;-61
2021/12/25 03:59:09;;;;;;;2.00;1.40;;;;;;;;;;5032922;28;20417;-61
2021/12/25 04:04:13;;;;;;;1.87;1.27;;;;;;;;;;5033041;28;20403;-61
2021/12/25 04:06:46;;;;;;;2.00;1.50;;;;;;;;;;5032796;28;20775;-59
2021/12/25 04:09:22;;;;;;;1.50;1.10;;;;;;;;;;5032706;28;20791;-59
2021/12/25 04:11:48;;;;;;;2.60;1.83;;;;;;;;;;5032874;28;20425;-60
2021/12/25 04:14:14;;;;;;;2.67;1.60;;;;;;;;;;5032509;28;20928;-60
2021/12/25 04:16:40;;;;;;;4.70;1.80;;;;;;;;;;5034682;28;20439;-59
2021/12/25 04:19:06;;;;;;;1.90;1.20;;;;;;;;;;5036651;28;20397;-60
2021/12/25 04:21:35;;;;;;;2.30;1.73;;;;;;;;;;5036476;28;20406;-60
2021/12/25 04:24:01;;;;;;;2.00;1.37;;;;;;;;;;5027124;28;20438;-59
2021/12/25 04:26:27;;;;;;;3.60;1.70;;;;;;;;;;5029880;28;20407;-59
2021/12/25 04:42:47;;;;;;;3.33;1.40;;;;;;;;;;5036340;28;20387;-59
2021/12/25 05:04:28;;;;;;;2.23;1.37;;;;;;;;;;5036215;28;20768;-60
2021/12/25 05:06:55;;;;;;;2.43;1.57;;;;;;;;;;5036036;28;20469;-60
2021/12/25 05:09:21;;;;;;;3.20;1.53;;;;;;;;;;5036078;28;20479;-60
2021/12/25 05:11:47;;;;;;;2.10;1.57;;;;;;;;;;5020333;28;20459;-60
2021/12/25 05:14:13;;;;;;;1.97;1.37;;;;;;;;;;5035767;28;20502;-59
2021/12/25 05:16:39;;;;;;;2.00;1.50;;;;;;;;;;5031884;28;20472;-60
2021/12/25 05:19:05;;;;;;;1.60;1.30;;;;;;;;;;5016449;28;20412;-60
2021/12/25 05:21:31;;;;;;;2.33;1.63;;;;;;;;;;5016126;28;20438;-60
2021/12/25 05:23:58;;;;;;;3.60;1.70;;;;;;;;;;5016136;28;20407;-60
2021/12/25 05:26:25;;;;;;;2.00;1.43;;;;;;;;;;5016325;28;20403;-60
2021/12/25 05:28:58;;;;;;;2.13;1.57;;;;;;;;;;5014899;28;20469;-60
2021/12/25 05:31:25;;;;;;;3.03;2.17;;;;;;;;;;5016066;28;20402;-60
2021/12/25 05:33:51;;;;;;;2.73;1.50;;;;;;;;;;5016111;28;20779;-60
2021/12/25 05:36:17;;;;;;;3.57;1.80;;;;;;;;;;5016065;28;20908;-60
2021/12/25 05:38:44;;;;;;;2.93;1.60;;;;;;;;;;5016148;28;20758;-60
2021/12/25 05:41:11;;;;;;;2.10;1.70;;;;;;;;;;5016108;28;20425;-60
2021/12/25 05:43:37;;;;;;;2.30;1.57;;;;;;;;;;5015858;28;20435;-60
2021/12/25 05:46:04;;;;;;;3.17;1.80;;;;;;;;;;5015545;28;20923;-60
2021/12/25 05:48:35;;;;;;;2.07;1.50;;;;;;;;;;5015504;28;20959;-60
2021/12/25 05:51:01;;;;;;;3.03;1.50;;;;;;;;;;5015470;28;20470;-60
2021/12/25 05:53:27;;;;;;;3.13;2.10;;;;;;;;;;5015968;28;20474;-58
2021/12/25 05:55:53;;;;;;;2.27;1.57;;;;;;;;;;5015557;28;20438;-60
2021/12/25 05:58:19;;;;;;;5.13;2.00;;;;;;;;;;5015385;28;20416;-60
2021/12/25 06:00:45;;;;;;;2.33;1.90;;;;;;;;;;5015396;28;20498;-58
2021/12/25 06:03:11;;;;;;;2.90;1.80;;;;;;;;;;5015309;28;20515;-60
2021/12/25 06:05:38;;;;;;;2.40;1.97;;;;;;;;;;5015383;28;20407;-60
2021/12/25 06:08:05;;;;;;;1.83;1.60;;;;;;;;;;5015162;28;20812;-60
2021/12/25 06:10:31;;;;;;;2.60;1.60;;;;;;;;;;5015180;28;20892;-60
2021/12/25 06:12:59;;;;;;;2.33;1.40;;;;;;;;;;5015013;28;20419;-60
2021/12/25 06:15:26;;;;;;;3.00;2.10;;;;;;;;;;5015204;28;20399;-60
2021/12/25 06:17:52;;;;;;;2.03;1.20;;;;;;;;;;5013543;28;20562;-56
2021/12/25 06:20:19;;;;;;;3.07;1.73;;;;;;;;;;5015183;28;20430;-59
2021/12/25 06:22:45;;;;;;;2.77;1.97;;;;;;;;;;5015044;28;20778;-58
2021/12/25 06:25:11;;;;;;;2.57;1.77;;;;;;;;;;5014910;28;20427;-58
2021/12/25 06:27:38;;;;;;;2.10;1.70;;;;;;;;;;5014602;28;20494;-58
2021/12/25 06:30:06;;;;;;;2.30;1.57;;;;;;;;;;5014805;28;20399;-58
2021/12/25 06:32:32;;;;;;;2.00;1.50;;;;;;;;;;5015178;28;20930;-58
2021/12/25 06:34:58;;;;;;;2.20;1.70;;;;;;;;;;5014840;28;20458;-57
2021/12/25 06:37:25;;;;;;;2.33;1.63;;;;;;;;;;5014696;28;20435;-59
2021/12/25 06:39:51;;;;;;;2.40;1.70;;;;;;;;;;5013915;28;20422;-60
2021/12/25 06:42:17;;;;;;;2.33;1.50;;;;;;;;;;5015734;28;20515;-56
2021/12/25 06:44:43;;;;;;;2.43;1.30;;;;;;;;;;5014787;28;20498;-57
2021/12/25 06:47:09;;;;;;;2.00;1.50;;;;;;;;;;5014439;28;20447;-58
2021/12/25 06:49:35;;;;;;;2.20;1.57;;;;;;;;;;5013222;28;20420;-58
2021/12/25 06:52:02;;;;;;;2.13;1.20;;;;;;;;;;5014742;28;20801;-55
2021/12/25 06:54:29;;;;;;;2.07;1.30;;;;;;;;;;5014884;28;20411;-56
2021/12/25 06:56:55;;;;;;;5.07;1.63;;;;;;;;;;5013049;28;20451;-54
2021/12/25 06:59:21;;;;;;;1.70;1.30;;;;;;;;;;5014522;28;20415;-54
2021/12/25 07:01:48;;;;;;;2.00;1.37;;;;;;;;;;5014240;28;20932;-55
2021/12/25 07:04:14;;;;;;;1.77;1.20;;;;;;;;;;5014641;28;20766;-55
2021/12/25 07:06:40;;;;;;;2.43;1.67;;;;;;;;;;5014244;28;20482;-55
2021/12/25 07:09:07;;;;;;;3.30;1.60;;;;;;;;;;5014453;28;20408;-56
2021/12/25 07:11:34;;;;;;;2.83;1.30;;;;;;;;;;5014182;28;20403;-55
2021/12/25 07:14:03;;;;;;;1.90;1.53;;;;;;;;;;5022070;28;20403;-58
2021/12/25 07:16:29;;;;;;;2.47;1.40;;;;;;;;;;5022444;28;20408;-58
2021/12/25 07:18:55;;;;;;;2.40;1.27;;;;;;;;;;5014044;28;20769;-59
2021/12/25 07:21:21;;;;;;;2.00;1.50;;;;;;;;;;5013779;28;20810;-61
2021/12/25 07:23:47;;;;;;;2.43;1.80;;;;;;;;;;5013812;28;20411;-59
2021/12/25 07:26:17;;;;;;;2.10;1.40;;;;;;;;;;5013708;28;20454;-59
2021/12/25 07:28:43;;;;;;;2.03;1.23;;;;;;;;;;5013502;28;20467;-59
2021/12/25 07:31:09;;;;;;;6.30;2.37;;;;;;;;;;5013643;28;20400;-59
2021/12/25 07:33:40;;;;;;;2.30;1.53;;;;;;;;;;5013813;28;20424;-58
2021/12/25 07:36:07;;;;;;;3.63;1.43;;;;;;;;;;5013509;28;20395;-59
2021/12/25 07:38:33;;;;;;;2.03;1.50;;;;;;;;;;5013466;28;20804;-58
2021/12/25 07:40:59;;;;;;;2.07;1.47;;;;;;;;;;5013364;28;20901;-58
2021/12/25 07:43:25;;;;;;;2.00;1.40;;;;;;;;;;5013487;28;20427;-59
2021/12/25 07:45:52;;;;;;;2.17;1.50;;;;;;;;;;5013443;28;20430;-59
2021/12/25 07:48:20;;;;;;;1.80;1.50;;;;;;;;;;5013653;28;20455;-59
2021/12/25 07:50:46;;;;;;;2.80;1.40;;;;;;;;;;5013329;28;20408;-59
2021/12/25 07:53:13;;;;;;;1.57;1.23;;;;;;;;;;5013679;28;20427;-59
2021/12/25 07:55:39;;;;;;;2.33;1.30;;;;;;;;;;5013288;28;20399;-59
2021/12/25 07:58:06;;;;;;;2.50;1.47;;;;;;;;;;5013431;28;20411;-59
2021/12/25 08:00:32;;;;;;;2.27;1.47;;;;;;;;;;5013660;28;20538;-59
2021/12/25 08:02:58;;;;;;;3.60;1.60;;;;;;;;;;5013285;28;20482;-61
2021/12/25 08:05:24;;;;;;;2.13;1.47;;;;;;;;;;5013642;28;20457;-61
2021/12/25 08:07:50;;;;;;;2.17;1.40;;;;;;;;;;5013158;28;20497;-60
2021/12/25 08:10:21;;;;;;;1.63;1.27;;;;;;;;;;5013171;28;20454;-61
2021/12/25 08:12:51;;;;;;;3.50;1.30;;;;;;;;;;5013199;28;20427;-61
2021/12/25 08:15:19;;;;;;;2.40;1.60;;;;;;;;;;5013422;28;20490;-61
2021/12/25 08:17:45;;;;;;;3.97;1.40;;;;;;;;;;5013103;28;20515;-61
2021/12/25 08:20:12;;;;;;;2.53;1.60;;;;;;;;;;5013085;28;20908;-61
2021/12/25 08:22:38;;;;;;;1.87;1.50;;;;;;;;;;5013025;28;20795;-59
2021/12/25 08:25:05;;;;;;;2.73;1.70;;;;;;;;;;5012947;28;20423;-61
2021/12/25 08:27:31;;;;;;;1.97;1.53;;;;;;;;;;5013125;28;20546;-60
2021/12/25 08:29:58;;;;;;;3.20;1.47;;;;;;;;;;5011817;28;20422;-60
2021/12/25 08:32:24;;;;;;;1.90;1.30;;;;;;;;;;5012946;28;20416;-61
2021/12/25 08:34:50;;;;;;;2.20;1.30;;;;;;;;;;5013056;28;20899;-63
2021/12/25 08:37:16;;;;;;;1.77;1.33;;;;;;;;;;5013250;28;20404;-61
2021/12/25 08:39:42;;;;;;;3.00;1.67;;;;;;;;;;5013276;28;20414;-60
2021/12/25 08:42:09;;;;;;;2.77;1.40;;;;;;;;;;5013240;28;20431;-59
2021/12/25 08:44:39;;;;;;;2.37;1.70;;;;;;;;;;5013139;28;20478;-61
2021/12/25 08:47:07;;;;;;;2.03;1.43;;;;;;;;;;5012964;28;20451;-61
2021/12/25 08:49:34;;;;;;;2.17;1.47;;;;;;;;;;5012804;28;20404;-61
2021/12/25 08:52:02;;;;;;;2.37;1.70;;;;;;;;;;5012804;28;20434;-60
2021/12/25 08:54:28;;;;;;;1.90;1.23;;;;;;;;;;5013013;28;20407;-61
2021/12/25 08:56:54;;;;;;;2.20;1.50;;;;;;;;;;5013121;28;20399;-61
2021/12/25 08:59:20;;;;;;;2.47;1.73;;;;;;;;;;5012726;28;20400;-60
2021/12/25 09:01:47;;;;;;;3.07;1.90;;;;;;;;;;5012547;28;20439;-61
2021/12/25 09:04:13;;;;;;;2.80;1.67;;;;;;;;;;5015647;28;20399;-60
2021/12/25 09:06:39;;;;;;;2.10;1.70;;;;;;;;;;5016218;28;20407;-61
2021/12/25 09:09:09;;;;;;;2.70;2.00;;;;;;;;;;5016337;28;20423;-60
2021/12/25 09:11:36;;;;;;;2.30;1.83;;;;;;;;;;5016143;28;20472;-58
2021/12/25 09:14:02;;;;;;;1.93;1.40;;;;;;;;;;5016523;28;20434;-55
2021/12/25 09:16:28;;;;;;;3.00;1.70;;;;;;;;;;5016356;28;20415;-61
2021/12/25 09:18:54;;;;;;;1.93;1.40;;;;;;;;;;5016436;28;20407;-60
2021/12/25 09:21:20;;;;;;;2.40;1.50;;;;;;;;;;5016055;28;20399;-58
2021/12/25 09:23:46;;;;;;;1.97;1.40;;;;;;;;;;5016457;28;20415;-58
2021/12/25 09:26:12;;;;;;;4.27;1.70;;;;;;;;;;5016551;28;20462;-62
2021/12/25 09:28:39;;;;;;;3.00;1.83;;;;;;;;;;5032667;28;20458;-65
2021/12/25 09:31:05;;;;;;;2.10;1.37;;;;;;;;;;5034301;28;20505;-61
2021/12/25 09:33:31;;;;;;;2.50;2.10;;;;;;;;;;5035300;28;20430;-67
2021/12/25 09:35:57;;;;;;;5.83;1.73;;;;;;;;;;5035847;28;20418;-62
2021/12/25 09:38:23;;;;;;;1.77;1.20;;;;;;;;;;5034819;28;20418;-64
2021/12/25 09:40:50;;;;;;;2.10;1.53;;;;;;;;;;5035883;28;20764;-65
2021/12/25 09:43:18;;;;;;;2.70;1.50;;;;;;;;;;5034214;28;21000;-64
2021/12/25 09:45:45;;;;;;;3.00;1.90;;;;;;;;;;5030431;28;20431;-64
2021/12/25 09:48:11;;;;;;;2.00;1.40;;;;;;;;;;5033953;28;20488;-64
2021/12/25 09:50:37;;;;;;;3.40;1.97;;;;;;;;;;5034338;28;20907;-64
2021/12/25 09:53:10;;;;;;;1.70;1.43;;;;;;;;;;5034112;28;20458;-64
2021/12/25 09:55:38;;;;;;;2.10;1.40;;;;;;;;;;5035658;28;20407;-66
2021/12/25 09:58:04;;;;;;;4.70;1.83;;;;;;;;;;5035366;28;20406;-64
2021/12/25 10:00:30;;;;;;;3.37;1.87;;;;;;;;;;5035408;28;20497;-63
2021/12/25 10:02:57;;;;;;;1.70;1.40;;;;;;;;;;5035000;28;20927;-63
2021/12/25 10:05:31;;;;;;;2.37;1.80;;;;;;;;;;5035135;28;20766;-63
2021/12/25 10:08:11;;;;;;;3.90;1.60;;;;;;;;;;5033766;28;20453;-63
2021/12/25 10:10:59;;;;;;;2.10;1.57;;;;;;;;;;5035395;28;20383;-63
2021/12/25 10:13:25;;;;;;;2.37;1.60;;;;;;;;;;5034877;28;20431;-65
2021/12/25 10:15:53;;;;;;;2.43;1.50;;;;;;;;;;5034852;28;20394;-63
2021/12/25 10:18:32;;;;;;;2.10;1.30;;;;;;;;;;5034907;28;20484;-63
2021/12/25 10:21:15;;;;;;;5.83;1.37;;;;;;;;;;5034829;28;20416;-65
2021/12/25 10:23:41;;;;;;;2.43;1.40;;;;;;;;;;5034924;28;20436;-63
2021/12/25 10:26:07;;;;;;;2.57;1.53;;;;;;;;;;5034720;28;20406;-63
2021/12/25 10:28:38;;;;;;;1.87;1.40;;;;;;;;;;5034262;28;21037;-63
2021/12/25 10:31:08;;;;;;;2.70;1.40;;;;;;;;;;5034957;28;20391;-65
2021/12/25 10:33:34;;;;;;;2.30;1.30;;;;;;;;;;5034644;28;20414;-64
2021/12/25 10:36:08;;;;;;;2.43;1.57;;;;;;;;;;5034653;28;20406;-64
2021/12/25 10:38:34;;;;;;;1.90;1.00;;;;;;;;;;5034943;28;20395;-63
2021/12/25 10:41:11;;;;;;;2.70;1.83;;;;;;;;;;5034783;28;20437;-63
2021/12/25 10:43:41;;;;;;;2.87;1.80;;;;;;;;;;5034490;28;20430;-63
2021/12/25 10:46:07;;;;;;;2.23;1.27;;;;;;;;;;5034468;28;20872;-64
2021/12/25 10:48:33;;;;;;;1.87;1.33;;;;;;;;;;5034323;28;20867;-63
2021/12/25 10:51:00;;;;;;;2.00;1.37;;;;;;;;;;5034303;28;20394;-63
2021/12/25 10:53:31;;;;;;;2.13;1.50;;;;;;;;;;5034107;28;20421;-63
2021/12/25 10:56:12;;;;;;;2.13;1.30;;;;;;;;;;5034318;28;20403;-63
2021/12/25 10:58:38;;;;;;;1.83;1.27;;;;;;;;;;5034217;28;20895;-63
2021/12/25 11:01:05;;;;;;;1.70;1.30;;;;;;;;;;5033747;28;20411;-64
2021/12/25 11:03:33;;;;;;;2.00;1.33;;;;;;;;;;5034299;28;20483;-63
2021/12/25 11:06:04;;;;;;;3.27;1.70;;;;;;;;;;5033972;28;20403;-63
2021/12/25 11:08:30;;;;;;;1.60;1.13;;;;;;;;;;5033724;28;20520;-63
2021/12/25 11:10:56;;;;;;;1.93;1.27;;;;;;;;;;5033941;28;20937;-63
2021/12/25 11:13:37;;;;;;;1.80;1.27;;;;;;;;;;5033884;28;20418;-63
2021/12/25 11:16:17;;;;;;;1.67;1.20;;;;;;;;;;5033773;28;20406;-63
2021/12/25 11:19:05;;;;;;;1.73;1.00;;;;;;;;;;5033911;28;20410;-63
2021/12/25 11:21:54;;;;;;;3.10;1.20;;;;;;;;;;5032358;28;20399;-63
2021/12/25 11:24:22;;;;;;;1.60;1.07;;;;;;;;;;5032451;28;20442;-64
2021/12/25 11:26:50;;;;;;;3.00;1.70;;;;;;;;;;5033006;28;20399;-62
2021/12/25 11:29:17;;;;;;;2.33;1.30;;;;;;;;;;5033356;28;20918;-63
2021/12/25 11:31:44;;;;;;;2.33;1.20;;;;;;;;;;5033458;28;20414;-63
2021/12/25 11:34:10;;;;;;;1.70;1.17;;;;;;;;;;5033849;28;20478;-63
2021/12/25 11:36:40;;;;;;;1.70;1.17;;;;;;;;;;5033590;28;20402;-63
2021/12/25 11:39:07;;;;;;;1.90;1.20;;;;;;;;;;5033758;28;20399;-63
2021/12/25 11:41:34;;;;;;;1.97;1.20;;;;;;;;;;5033469;28;20887;-63
2021/12/25 11:44:05;;;;;;;2.10;1.10;;;;;;;;;;5033421;28;20417;-63
2021/12/25 11:46:38;;;;;;;2.33;1.73;;;;;;;;;;5033760;28;20421;-63
2021/12/25 11:49:11;;;;;;;1.80;1.47;;;;;;;;;;5033239;28;20450;-63
2021/12/25 11:51:40;;;;;;;1.70;1.30;;;;;;;;;;5033194;28;20386;-63
2021/12/25 11:54:42;;;;;;;1.90;1.30;;;;;;;;;;5033240;28;20430;-63
2021/12/25 11:59:52;;;;;;;1.90;1.50;;;;;;;;;;5033083;28;20378;-63
2021/12/25 12:02:36;;;;;;;2.07;1.20;;;;;;;;;;5033119;28;20455;-63
2021/12/25 12:05:19;;;;;;;2.60;1.30;;;;;;;;;;5033032;28;20409;-64
2021/12/25 12:08:04;;;;;;;2.00;1.27;;;;;;;;;;5033014;28;20442;-63
2021/12/25 12:10:45;;;;;;;3.50;1.20;;;;;;;;;;5033315;28;20417;-64
2021/12/25 12:13:22;;;;;;;5.93;2.03;;;;;;;;;;5033222;28;20502;-64
2021/12/25 12:15:52;;;;;;;2.30;1.60;;;;;;;;;;5033344;28;20406;-64
2021/12/25 12:18:24;;;;;;;2.00;1.37;;;;;;;;;;5033072;28;20433;-63
2021/12/25 12:20:51;;;;;;;2.13;1.50;;;;;;;;;;5033031;28;20895;-63
2021/12/25 12:26:07;;;;;;;3.73;1.73;;;;;;;;;;5033302;28;20470;-63
2021/12/25 12:28:47;;;;;;;2.40;1.70;;;;;;;;;;5032685;28;20845;-64
2021/12/25 12:31:31;;;;;;;2.50;1.40;;;;;;;;;;5032970;28;20413;-64
2021/12/25 12:33:57;;;;;;;2.90;1.73;;;;;;;;;;5032785;28;20426;-63
2021/12/25 12:36:25;;;;;;;1.97;1.30;;;;;;;;;;5032640;28;20431;-65
2021/12/25 12:38:54;;;;;;;2.23;1.50;;;;;;;;;;5036803;28;20398;-63
2021/12/25 12:41:21;;;;;;;2.97;1.80;;;;;;;;;;5036440;28;20394;-63
2021/12/25 12:43:58;;;;;;;2.30;1.70;;;;;;;;;;5036814;28;20394;-63
2021/12/25 12:46:45;;;;;;;1.80;1.40;;;;;;;;;;5036162;28;20406;-63
2021/12/25 12:49:11;;;;;;;2.53;1.60;;;;;;;;;;5036293;28;20457;-63
2021/12/25 12:51:37;;;;;;;3.03;1.33;;;;;;;;;;5036429;28;20406;-63
2021/12/25 12:54:04;;;;;;;2.10;1.50;;;;;;;;;;5036861;28;20417;-65
2021/12/25 12:56:30;;;;;;;2.47;1.63;;;;;;;;;;5036262;28;20451;-65
2021/12/25 12:58:57;;;;;;;2.50;1.90;;;;;;;;;;5036241;28;20888;-64
2021/12/25 13:01:27;;;;;;;2.90;1.87;;;;;;;;;;5036262;28;20390;-63
2021/12/25 13:03:57;;;;;;;3.03;1.63;;;;;;;;;;5036625;28;20425;-63
2021/12/25 13:06:26;;;;;;;2.00;1.50;;;;;;;;;;5036083;28;20426;-63
2021/12/25 13:08:53;;;;;;;2.50;1.50;;;;;;;;;;5035689;28;20498;-65
2021/12/25 13:13:54;;;;;;;2.93;1.57;;;;;;;;;;5036086;28;20429;-63
2021/12/25 13:16:23;;;;;;;3.03;1.80;;;;;;;;;;5035957;28;20863;-63
2021/12/25 13:18:53;;;;;;;2.27;1.60;;;;;;;;;;5035634;28;20407;-65
2021/12/25 13:21:23;;;;;;;3.23;1.63;;;;;;;;;;5035702;28;20417;-65
2021/12/25 13:23:53;;;;;;;2.70;1.70;;;;;;;;;;5035737;28;20465;-63
2021/12/25 13:26:20;;;;;;;2.80;2.20;;;;;;;;;;5034682;28;20410;-63
2021/12/25 13:28:48;;;;;;;2.97;1.90;;;;;;;;;;5035383;28;20780;-63
2021/12/25 13:31:16;;;;;;;2.97;1.90;;;;;;;;;;5035630;28;20417;-63
2021/12/25 13:33:52;;;;;;;3.23;2.00;;;;;;;;;;5035557;28;20415;-63
2021/12/25 13:36:20;;;;;;;3.30;2.20;;;;;;;;;;5035539;28;20430;-64
2021/12/25 13:38:48;;;;;;;2.70;1.77;;;;;;;;;;5035580;28;20402;-63
2021/12/25 13:41:16;;;;;;;2.50;2.00;;;;;;;;;;5035599;28;20406;-63
2021/12/25 13:43:42;;;;;;;2.70;2.17;;;;;;;;;;5035286;28;20430;-62
2021/12/25 13:46:08;;;;;;;3.57;2.30;;;;;;;;;;5034202;28;20411;-63
2021/12/25 13:48:38;;;;;;;2.30;1.70;;;;;;;;;;5034685;28;20791;-63
2021/12/25 13:51:05;;;;;;;4.13;2.03;;;;;;;;;;5035308;28;20976;-63
2021/12/25 13:53:31;;;;;;;2.90;2.07;;;;;;;;;;5035400;28;21007;-62
2021/12/25 13:55:57;;;;;;;3.00;1.80;;;;;;;;;;5035170;28;20482;-63
2021/12/25 13:58:27;;;;;;;3.40;2.30;;;;;;;;;;5035066;28;20438;-62
2021/12/25 14:00:53;;;;;;;2.80;1.90;;;;;;;;;;5034963;28;20417;-65
2021/12/25 14:03:21;;;;;;;3.33;2.10;;;;;;;;;;5035058;28;20425;-63
2021/12/25 14:05:48;;;;;;;5.70;2.17;;;;;;;;;;5035555;28;20896;-61
2021/12/25 14:08:18;;;;;;;3.90;2.47;;;;;;;;;;5035386;28;20591;-63
2021/12/25 14:10:44;;;;;;;2.30;1.60;;;;;;;;;;5035133;28;20438;-62
2021/12/25 14:13:18;;;;;;;3.40;2.17;;;;;;;;;;5035236;28;20421;-61
2021/12/25 14:15:46;;;;;;;5.23;2.43;;;;;;;;;;5035147;28;20504;-65
2021/12/25 14:18:12;;;;;;;2.67;2.17;;;;;;;;;;5035174;28;20500;-63
2021/12/25 14:20:39;;;;;;;3.63;2.93;;;;;;;;;;5034875;28;20402;-63
2021/12/25 14:23:07;;;;;;;3.20;2.07;;;;;;;;;;5034585;28;20514;-63
2021/12/25 14:25:35;;;;;;;3.33;2.20;;;;;;;;;;5034656;28;20418;-65
2021/12/25 14:28:01;;;;;;;3.13;2.23;;;;;;;;;;5034447;28;20537;-63
2021/12/25 14:30:27;;;;;;;3.07;2.23;;;;;;;;;;5034965;28;20469;-63
2021/12/25 14:32:53;;;;;;;4.10;2.03;;;;;;;;;;5034546;28;20505;-65
2021/12/25 14:35:20;;;;;;;2.53;1.90;;;;;;;;;;5034876;28;20767;-65
2021/12/25 14:37:47;;;;;;;2.93;2.40;;;;;;;;;;5034389;28;20399;-63
2021/12/25 14:40:19;;;;;;;4.47;2.10;;;;;;;;;;5034635;28;20406;-63
2021/12/25 14:42:53;;;;;;;7.50;2.77;;;;;;;;;;5034429;28;20831;-64
2021/12/25 14:45:21;;;;;;;5.33;2.73;;;;;;;;;;5034654;28;20452;-64
2021/12/25 14:47:58;;;;;;;4.30;3.03;;;;;;;;;;5034213;28;20454;-63
2021/12/25 14:50:27;;;;;;;4.27;2.87;;;;;;;;;;5034377;28;20501;-62
2021/12/25 14:53:05;;;;;;;4.97;2.60;;;;;;;;;;5034620;28;20419;-62
2021/12/25 14:55:40;;;;;;;3.90;3.37;;;;;;;;;;5035247;28;20402;-63
2021/12/25 14:58:08;;;;;;;3.33;3.03;;;;;;;;;;5039168;28;20826;-61
2021/12/25 15:00:34;;;;;;;4.40;3.67;;;;;;;;;;5034314;28;20407;-65
2021/12/25 15:03:11;;;;;;;4.90;3.10;;;;;;;;;;5034135;28;20501;-62
2021/12/25 15:05:38;;;;;;;8.40;3.70;;;;;;;;;;5032910;28;20432;-61
2021/12/25 15:08:16;;;;;;;4.23;3.33;;;;;;;;;;5033940;28;20446;-62
2021/12/25 15:10:42;;;;;;;5.20;3.37;;;;;;;;;;5033939;28;20383;-60
2021/12/25 15:13:18;;;;;;;4.63;2.93;;;;;;;;;;5034407;28;20891;-62
2021/12/25 15:15:52;;;;;;;7.57;2.93;;;;;;;;;;5034275;28;20413;-62
2021/12/25 15:18:26;;;;;;;3.20;2.20;;;;;;;;;;5033776;28;20427;-62
2021/12/25 15:21:10;;;;;;;4.50;2.97;;;;;;;;;;5032387;28;20763;-64
2021/12/25 15:23:36;;;;;;;3.37;2.50;;;;;;;;;;5033435;28;20422;-62
2021/12/25 15:26:05;;;;;;;3.70;2.90;;;;;;;;;;5033831;28;20414;-62
2021/12/25 15:28:31;;;;;;;4.30;3.00;;;;;;;;;;5033274;28;20458;-64
2021/12/25 15:30:57;;;;;;;4.23;2.17;;;;;;;;;;5033523;28;20403;-62
2021/12/25 15:33:24;;;;;;;3.10;2.43;;;;;;;;;;5033660;28;20429;-61
2021/12/25 15:35:50;;;;;;;2.90;2.23;;;;;;;;;;5032177;28;20500;-62
2021/12/25 15:38:28;;;;;;;3.30;2.60;;;;;;;;;;5033407;28;20498;-62
2021/12/25 15:40:54;;;;;;;3.00;2.50;;;;;;;;;;5033637;28;20411;-61
2021/12/25 15:43:21;;;;;;;2.30;1.87;;;;;;;;;;5033483;28;20939;-61
2021/12/25 15:45:47;;;;;;;2.20;2.00;;;;;;;;;;5033698;28;20769;-62
2021/12/25 15:48:13;;;;;;;2.60;2.20;;;;;;;;;;5032180;28;20504;-61
2021/12/25 15:50:39;;;;;;;2.80;2.07;;;;;;;;;;5033507;28;20394;-62
2021/12/25 15:53:06;;;;;;;2.53;1.97;;;;;;;;;;5033417;28;20419;-62
2021/12/25 15:55:33;;;;;;;4.13;1.97;;;;;;;;;;5033279;28;20441;-62
2021/12/25 15:58:06;;;;;;;2.30;1.70;;;;;;;;;;5033521;28;20530;-62
2021/12/25 16:00:36;;;;;;;3.13;2.20;;;;;;;;;;5033272;28;20474;-63
2021/12/25 16:03:03;;;;;;;2.90;2.43;;;;;;;;;;5033091;28;20419;-65
2021/12/25 16:05:29;;;;;;;2.80;2.40;;;;;;;;;;5033204;28;20406;-62
2021/12/25 16:07:56;;;;;;;7.73;2.23;;;;;;;;;;5033202;28;20785;-63
2021/12/25 16:10:22;;;;;;;2.63;1.90;;;;;;;;;;5033109;28;20406;-63
2021/12/25 16:12:48;;;;;;;3.37;2.27;;;;;;;;;;5037640;28;20790;-63
2021/12/25 16:15:14;;;;;;;2.97;2.30;;;;;;;;;;5039615;28;20884;-63